KFNT/FNT METAR and TAF weather

Enter ICAO airport designator
Station Type Date Time Source
KFNT METAR 2019/10/15 21:53 UTC NOAA

KFNT 152153Z 09008KT 10SM OVC060 13/08 A2980 RMK AO2 LTG DSNT E RAB00E19 TSB00E24 SLP096 P0004 T01280083 $


Station Type Date Time Source
KFNT Decoded METAR 2019/10/15 21:53 UTC NOAA

FLINT BISHOP INTERNATIONAL AIRPORT, MI, United States (KFNT) 42-58N 83-45W 233M
Oct 15, 2019 - 05:53 PM EDT / 2019.10.15 2153 UTC
Wind: from the E (090 degrees) at 9 MPH (8 KT):0
Visibility: 10 mile(s):0
Sky conditions: overcast
Weather: Lightning observed
Precipitation last hour: 0.04 inches
Temperature: 55.0 F (12.8 C)
Dew Point: 46.9 F (8.3 C)
Relative Humidity: 74%
Pressure (altimeter): 29.8 in. Hg (1009 hPa)
ob: KFNT 152153Z 09008KT 10SM OVC060 13/08 A2980 RMK AO2 LTG DSNT E RAB00E19 TSB00E24 SLP096 P0004 T01280083
cycle: 22

Station Type Date Time Source
KFNT TAF 2019/10/15 21:06 UTC NOAA

TAF
AMD KFNT 152105Z 1521/1618 16009KT 3SM TSRA OVC040CB
FM152200 16010KT P6SM OVC050
FM160400 19008KT 5SM -SHRA OVC010
FM160700 26011G20KT P6SM OVC015
FM161700 28014G23KT P6SM -SHRA OVC015

Example: see airport list